sensor_id;sensor_type;location;lat;lon;timestamp;P1;durP1;ratioP1;P2;durP2;ratioP2
23252;SDS011;11795;47.054;15.408;2024-03-17T00:00:01;6.3;;;4.8;;
23252;SDS011;11795;47.054;15.408;2024-03-17T00:02:00;6.3;;;4.8;;
23252;SDS011;11795;47.054;15.408;2024-03-17T00:04:00;6.3;;;4.8;;
23252;SDS011;11795;47.054;15.408;2024-03-17T00:06:01;6.8;;;5.2;;
23252;SDS011;11795;47.054;15.408;2024-03-17T00:08:00;6.8;;;5.2;;
23252;SDS011;11795;47.054;15.408;2024-03-17T00:10:00;5.4;;;4.4;;
23252;SDS011;11795;47.054;15.408;2024-03-17T00:12:00;5.4;;;4.4;;
23252;SDS011;11795;47.054;15.408;2024-03-17T00:14:00;5.4;;;4.4;;
23252;SDS011;11795;47.054;15.408;2024-03-17T00:16:00;4.6;;;4.1;;
23252;SDS011;11795;47.054;15.408;2024-03-17T00:18:00;4.6;;;4.1;;
23252;SDS011;11795;47.054;15.408;2024-03-17T00:20:04;5.3;;;4.2;;
23252;SDS011;11795;47.054;15.408;2024-03-17T00:22:00;5.3;;;4.2;;
23252;SDS011;11795;47.054;15.408;2024-03-17T00:24:02;5.3;;;4.2;;
23252;SDS011;11795;47.054;15.408;2024-03-17T00:26:00;8.2;;;4.6;;
23252;SDS011;11795;47.054;15.408;2024-03-17T00:28:00;8.2;;;4.6;;
23252;SDS011;11795;47.054;15.408;2024-03-17T00:30:00;6.1;;;5.0;;
23252;SDS011;11795;47.054;15.408;2024-03-17T00:32:00;6.1;;;5.0;;
23252;SDS011;11795;47.054;15.408;2024-03-17T00:34:00;6.1;;;5.0;;
23252;SDS011;11795;47.054;15.408;2024-03-17T00:36:00;7.4;;;5.1;;
23252;SDS011;11795;47.054;15.408;2024-03-17T00:38:03;7.4;;;5.1;;
23252;SDS011;11795;47.054;15.408;2024-03-17T00:40:00;5.4;;;4.4;;
23252;SDS011;11795;47.054;15.408;2024-03-17T00:42:01;5.4;;;4.4;;
23252;SDS011;11795;47.054;15.408;2024-03-17T00:44:01;5.4;;;4.4;;
23252;SDS011;11795;47.054;15.408;2024-03-17T00:46:00;7.5;;;4.7;;
23252;SDS011;11795;47.054;15.408;2024-03-17T00:48:01;7.5;;;4.7;;
23252;SDS011;11795;47.054;15.408;2024-03-17T00:50:00;6.4;;;4.6;;
23252;SDS011;11795;47.054;15.408;2024-03-17T00:52:00;6.4;;;4.6;;
23252;SDS011;11795;47.054;15.408;2024-03-17T00:54:00;6.4;;;4.6;;
23252;SDS011;11795;47.054;15.408;2024-03-17T00:56:01;6.7;;;5.3;;
23252;SDS011;11795;47.054;15.408;2024-03-17T00:58:00;6.7;;;5.3;;
23252;SDS011;11795;47.054;15.408;2024-03-17T01:00:00;6.3;;;4.6;;
23252;SDS011;11795;47.054;15.408;2024-03-17T01:02:00;6.3;;;4.6;;
23252;SDS011;11795;47.054;15.408;2024-03-17T01:04:00;6.3;;;4.6;;
23252;SDS011;11795;47.054;15.408;2024-03-17T01:06:02;5.1;;;4.1;;
23252;SDS011;11795;47.054;15.408;2024-03-17T01:08:00;5.1;;;4.1;;
23252;SDS011;11795;47.054;15.408;2024-03-17T01:10:00;5.5;;;4.2;;
23252;SDS011;11795;47.054;15.408;2024-03-17T01:12:00;5.5;;;4.2;;
23252;SDS011;11795;47.054;15.408;2024-03-17T01:14:00;5.5;;;4.2;;
23252;SDS011;11795;47.054;15.408;2024-03-17T01:16:00;6.3;;;4.5;;
23252;SDS011;11795;47.054;15.408;2024-03-17T01:18:00;6.3;;;4.5;;
23252;SDS011;11795;47.054;15.408;2024-03-17T01:20:00;4.9;;;3.9;;
23252;SDS011;11795;47.054;15.408;2024-03-17T01:22:00;4.9;;;3.9;;
23252;SDS011;11795;47.054;15.408;2024-03-17T01:24:00;4.9;;;3.9;;
23252;SDS011;11795;47.054;15.408;2024-03-17T01:26:00;4.8;;;3.6;;
23252;SDS011;11795;47.054;15.408;2024-03-17T01:28:00;4.8;;;3.6;;
23252;SDS011;11795;47.054;15.408;2024-03-17T01:30:01;3.5;;;2.7;;
23252;SDS011;11795;47.054;15.408;2024-03-17T01:32:00;3.5;;;2.7;;
23252;SDS011;11795;47.054;15.408;2024-03-17T01:34:01;3.5;;;2.7;;
23252;SDS011;11795;47.054;15.408;2024-03-17T01:36:00;4.6;;;3.5;;
23252;SDS011;11795;47.054;15.408;2024-03-17T01:38:00;4.6;;;3.5;;
23252;SDS011;11795;47.054;15.408;2024-03-17T01:40:00;4.1;;;3.1;;
23252;SDS011;11795;47.054;15.408;2024-03-17T01:42:00;4.1;;;3.1;;
23252;SDS011;11795;47.054;15.408;2024-03-17T01:44:00;4.1;;;3.1;;
23252;SDS011;11795;47.054;15.408;2024-03-17T01:46:02;4.0;;;2.3;;
23252;SDS011;11795;47.054;15.408;2024-03-17T01:48:01;4.0;;;2.3;;
23252;SDS011;11795;47.054;15.408;2024-03-17T01:50:00;3.6;;;2.6;;
23252;SDS011;11795;47.054;15.408;2024-03-17T01:52:00;3.6;;;2.6;;
23252;SDS011;11795;47.054;15.408;2024-03-17T01:54:00;3.6;;;2.6;;
23252;SDS011;11795;47.054;15.408;2024-03-17T01:56:00;4.2;;;3.0;;
23252;SDS011;11795;47.054;15.408;2024-03-17T01:58:00;4.2;;;3.0;;
23252;SDS011;11795;47.054;15.408;2024-03-17T02:00:00;3.5;;;2.5;;
23252;SDS011;11795;47.054;15.408;2024-03-17T02:02:00;3.5;;;2.5;;
23252;SDS011;11795;47.054;15.408;2024-03-17T02:04:01;3.5;;;2.5;;
23252;SDS011;11795;47.054;15.408;2024-03-17T02:06:00;2.3;;;1.8;;
23252;SDS011;11795;47.054;15.408;2024-03-17T02:08:00;2.3;;;1.8;;
23252;SDS011;11795;47.054;15.408;2024-03-17T02:10:01;3.1;;;1.2;;
23252;SDS011;11795;47.054;15.408;2024-03-17T02:12:00;3.1;;;1.2;;
23252;SDS011;11795;47.054;15.408;2024-03-17T02:14:00;3.1;;;1.2;;
23252;SDS011;11795;47.054;15.408;2024-03-17T02:16:00;2.2;;;1.1;;
23252;SDS011;11795;47.054;15.408;2024-03-17T02:18:00;2.2;;;1.1;;
23252;SDS011;11795;47.054;15.408;2024-03-17T02:20:00;2.0;;;1.1;;
23252;SDS011;11795;47.054;15.408;2024-03-17T02:22:00;2.0;;;1.1;;
23252;SDS011;11795;47.054;15.408;2024-03-17T02:24:00;2.0;;;1.1;;
23252;SDS011;11795;47.054;15.408;2024-03-17T02:26:00;1.9;;;1.0;;
23252;SDS011;11795;47.054;15.408;2024-03-17T02:28:00;1.9;;;1.0;;
23252;SDS011;11795;47.054;15.408;2024-03-17T02:30:00;1.9;;;1.0;;
23252;SDS011;11795;47.054;15.408;2024-03-17T02:32:04;2.6;;;1.5;;
23252;SDS011;11795;47.054;15.408;2024-03-17T02:34:00;2.6;;;1.5;;
23252;SDS011;11795;47.054;15.408;2024-03-17T02:36:01;2.3;;;1.5;;
23252;SDS011;11795;47.054;15.408;2024-03-17T02:38:00;2.3;;;1.5;;
23252;SDS011;11795;47.054;15.408;2024-03-17T02:40:00;2.3;;;1.5;;
23252;SDS011;11795;47.054;15.408;2024-03-17T02:42:01;2.0;;;1.7;;
23252;SDS011;11795;47.054;15.408;2024-03-17T02:44:00;2.0;;;1.7;;
23252;SDS011;11795;47.054;15.408;2024-03-17T02:46:04;2.3;;;1.9;;
23252;SDS011;11795;47.054;15.408;2024-03-17T02:48:00;2.3;;;1.9;;
23252;SDS011;11795;47.054;15.408;2024-03-17T02:50:00;2.3;;;1.9;;
23252;SDS011;11795;47.054;15.408;2024-03-17T02:52:00;1.8;;;1.4;;
23252;SDS011;11795;47.054;15.408;2024-03-17T02:54:00;1.8;;;1.4;;
23252;SDS011;11795;47.054;15.408;2024-03-17T02:56:00;1.7;;;1.3;;
23252;SDS011;11795;47.054;15.408;2024-03-17T02:58:00;1.7;;;1.3;;
23252;SDS011;11795;47.054;15.408;2024-03-17T03:00:00;1.7;;;1.3;;
23252;SDS011;11795;47.054;15.408;2024-03-17T03:02:00;1.2;;;0.8;;
23252;SDS011;11795;47.054;15.408;2024-03-17T03:04:00;1.2;;;0.8;;
23252;SDS011;11795;47.054;15.408;2024-03-17T03:06:01;0.8;;;0.7;;
23252;SDS011;11795;47.054;15.408;2024-03-17T03:08:00;0.8;;;0.7;;
23252;SDS011;11795;47.054;15.408;2024-03-17T03:10:00;0.8;;;0.7;;
23252;SDS011;11795;47.054;15.408;2024-03-17T03:12:02;1.1;;;0.9;;
23252;SDS011;11795;47.054;15.408;2024-03-17T03:14:00;1.1;;;0.9;;
23252;SDS011;11795;47.054;15.408;2024-03-17T03:16:00;1.8;;;0.8;;
23252;SDS011;11795;47.054;15.408;2024-03-17T03:18:00;1.8;;;0.8;;
23252;SDS011;11795;47.054;15.408;2024-03-17T03:20:01;1.8;;;0.8;;
23252;SDS011;11795;47.054;15.408;2024-03-17T03:22:00;1.0;;;0.8;;
23252;SDS011;11795;47.054;15.408;2024-03-17T03:24:00;1.0;;;0.8;;
23252;SDS011;11795;47.054;15.408;2024-03-17T03:26:03;0.9;;;0.7;;
23252;SDS011;11795;47.054;15.408;2024-03-17T03:28:01;0.9;;;0.7;;
23252;SDS011;11795;47.054;15.408;2024-03-17T03:30:00;0.9;;;0.7;;
23252;SDS011;11795;47.054;15.408;2024-03-17T03:32:00;1.2;;;1.0;;
23252;SDS011;11795;47.054;15.408;2024-03-17T03:34:01;1.2;;;1.0;;
23252;SDS011;11795;47.054;15.408;2024-03-17T03:36:06;1.1;;;1.0;;
23252;SDS011;11795;47.054;15.408;2024-03-17T03:38:00;1.1;;;1.0;;
23252;SDS011;11795;47.054;15.408;2024-03-17T03:40:00;1.1;;;1.0;;
23252;SDS011;11795;47.054;15.408;2024-03-17T03:42:00;1.8;;;1.5;;
23252;SDS011;11795;47.054;15.408;2024-03-17T03:44:00;1.8;;;1.5;;
23252;SDS011;11795;47.054;15.408;2024-03-17T03:46:01;2.6;;;1.6;;
23252;SDS011;11795;47.054;15.408;2024-03-17T03:48:00;2.6;;;1.6;;
23252;SDS011;11795;47.054;15.408;2024-03-17T03:50:00;2.6;;;1.6;;
23252;SDS011;11795;47.054;15.408;2024-03-17T03:52:00;2.0;;;1.4;;
23252;SDS011;11795;47.054;15.408;2024-03-17T03:54:00;2.0;;;1.4;;
23252;SDS011;11795;47.054;15.408;2024-03-17T03:56:02;1.6;;;1.2;;
23252;SDS011;11795;47.054;15.408;2024-03-17T03:58:00;1.6;;;1.2;;
23252;SDS011;11795;47.054;15.408;2024-03-17T04:00:00;1.6;;;1.2;;
23252;SDS011;11795;47.054;15.408;2024-03-17T04:02:00;2.8;;;1.3;;
23252;SDS011;11795;47.054;15.408;2024-03-17T04:04:00;2.8;;;1.3;;
23252;SDS011;11795;47.054;15.408;2024-03-17T04:06:01;1.5;;;1.2;;
23252;SDS011;11795;47.054;15.408;2024-03-17T04:08:00;1.5;;;1.2;;
23252;SDS011;11795;47.054;15.408;2024-03-17T04:10:00;1.5;;;1.2;;
23252;SDS011;11795;47.054;15.408;2024-03-17T04:12:00;1.2;;;0.8;;
23252;SDS011;11795;47.054;15.408;2024-03-17T04:14:00;1.2;;;0.8;;
23252;SDS011;11795;47.054;15.408;2024-03-17T04:16:03;1.4;;;1.0;;
23252;SDS011;11795;47.054;15.408;2024-03-17T04:18:00;1.4;;;1.0;;
23252;SDS011;11795;47.054;15.408;2024-03-17T04:20:00;1.4;;;1.0;;
23252;SDS011;11795;47.054;15.408;2024-03-17T04:22:01;3.3;;;1.5;;
23252;SDS011;11795;47.054;15.408;2024-03-17T04:24:00;3.3;;;1.5;;
23252;SDS011;11795;47.054;15.408;2024-03-17T04:26:00;1.8;;;1.0;;
23252;SDS011;11795;47.054;15.408;2024-03-17T04:28:00;1.8;;;1.0;;
23252;SDS011;11795;47.054;15.408;2024-03-17T04:30:00;1.8;;;1.0;;
23252;SDS011;11795;47.054;15.408;2024-03-17T04:32:01;1.7;;;1.2;;
23252;SDS011;11795;47.054;15.408;2024-03-17T04:34:01;1.7;;;1.2;;
23252;SDS011;11795;47.054;15.408;2024-03-17T04:36:00;2.1;;;1.7;;
23252;SDS011;11795;47.054;15.408;2024-03-17T04:38:00;2.1;;;1.7;;
23252;SDS011;11795;47.054;15.408;2024-03-17T04:40:02;2.1;;;1.7;;
23252;SDS011;11795;47.054;15.408;2024-03-17T04:42:00;3.4;;;1.8;;
23252;SDS011;11795;47.054;15.408;2024-03-17T04:44:00;3.4;;;1.8;;
23252;SDS011;11795;47.054;15.408;2024-03-17T04:46:01;3.6;;;2.2;;
23252;SDS011;11795;47.054;15.408;2024-03-17T04:48:00;3.6;;;2.2;;
23252;SDS011;11795;47.054;15.408;2024-03-17T04:50:00;3.6;;;2.2;;
23252;SDS011;11795;47.054;15.408;2024-03-17T04:52:00;2.9;;;2.0;;
23252;SDS011;11795;47.054;15.408;2024-03-17T04:54:00;2.9;;;2.0;;
23252;SDS011;11795;47.054;15.408;2024-03-17T04:56:00;5.0;;;2.0;;
23252;SDS011;11795;47.054;15.408;2024-03-17T04:58:00;5.0;;;2.0;;
23252;SDS011;11795;47.054;15.408;2024-03-17T05:00:00;5.0;;;2.0;;
23252;SDS011;11795;47.054;15.408;2024-03-17T05:02:00;3.1;;;2.3;;
23252;SDS011;11795;47.054;15.408;2024-03-17T05:04:03;3.1;;;2.3;;
23252;SDS011;11795;47.054;15.408;2024-03-17T05:06:01;4.0;;;2.6;;
23252;SDS011;11795;47.054;15.408;2024-03-17T05:08:00;4.0;;;2.6;;
23252;SDS011;11795;47.054;15.408;2024-03-17T05:10:00;4.0;;;2.6;;
23252;SDS011;11795;47.054;15.408;2024-03-17T05:12:00;3.7;;;2.8;;
23252;SDS011;11795;47.054;15.408;2024-03-17T05:14:00;3.7;;;2.8;;
23252;SDS011;11795;47.054;15.408;2024-03-17T05:16:00;2.8;;;2.4;;
23252;SDS011;11795;47.054;15.408;2024-03-17T05:18:00;2.8;;;2.4;;
23252;SDS011;11795;47.054;15.408;2024-03-17T05:20:00;2.8;;;2.4;;
23252;SDS011;11795;47.054;15.408;2024-03-17T05:22:00;3.5;;;2.5;;
23252;SDS011;11795;47.054;15.408;2024-03-17T05:24:01;3.5;;;2.5;;
23252;SDS011;11795;47.054;15.408;2024-03-17T05:26:00;3.4;;;2.2;;
23252;SDS011;11795;47.054;15.408;2024-03-17T05:28:00;3.4;;;2.2;;
23252;SDS011;11795;47.054;15.408;2024-03-17T05:30:01;3.4;;;2.2;;
23252;SDS011;11795;47.054;15.408;2024-03-17T05:32:02;2.7;;;1.9;;
23252;SDS011;11795;47.054;15.408;2024-03-17T05:34:00;2.7;;;1.9;;
23252;SDS011;11795;47.054;15.408;2024-03-17T05:36:02;2.2;;;1.7;;
23252;SDS011;11795;47.054;15.408;2024-03-17T05:38:00;2.2;;;1.7;;
23252;SDS011;11795;47.054;15.408;2024-03-17T05:40:00;2.2;;;1.7;;
23252;SDS011;11795;47.054;15.408;2024-03-17T05:42:03;3.0;;;1.9;;
23252;SDS011;11795;47.054;15.408;2024-03-17T05:44:03;3.0;;;1.9;;
23252;SDS011;11795;47.054;15.408;2024-03-17T05:46:01;2.2;;;1.6;;
23252;SDS011;11795;47.054;15.408;2024-03-17T05:48:05;2.2;;;1.6;;
23252;SDS011;11795;47.054;15.408;2024-03-17T05:50:00;2.2;;;1.6;;
23252;SDS011;11795;47.054;15.408;2024-03-17T05:52:00;2.6;;;1.8;;
23252;SDS011;11795;47.054;15.408;2024-03-17T05:54:00;2.6;;;1.8;;
23252;SDS011;11795;47.054;15.408;2024-03-17T05:56:00;1.8;;;1.5;;
23252;SDS011;11795;47.054;15.408;2024-03-17T05:58:01;1.8;;;1.5;;
23252;SDS011;11795;47.054;15.408;2024-03-17T06:00:00;1.8;;;1.5;;
23252;SDS011;11795;47.054;15.408;2024-03-17T06:02:00;2.4;;;1.5;;
23252;SDS011;11795;47.054;15.408;2024-03-17T06:04:04;2.4;;;1.5;;
23252;SDS011;11795;47.054;15.408;2024-03-17T06:06:00;2.0;;;1.8;;
23252;SDS011;11795;47.054;15.408;2024-03-17T06:08:02;2.0;;;1.8;;
23252;SDS011;11795;47.054;15.408;2024-03-17T06:10:00;2.0;;;1.8;;
23252;SDS011;11795;47.054;15.408;2024-03-17T06:12:00;2.6;;;1.7;;
23252;SDS011;11795;47.054;15.408;2024-03-17T06:14:04;2.6;;;1.7;;
23252;SDS011;11795;47.054;15.408;2024-03-17T06:16:01;2.3;;;1.9;;
23252;SDS011;11795;47.054;15.408;2024-03-17T06:18:02;2.3;;;1.9;;
23252;SDS011;11795;47.054;15.408;2024-03-17T06:20:02;2.3;;;1.9;;
23252;SDS011;11795;47.054;15.408;2024-03-17T06:22:00;3.7;;;2.1;;
23252;SDS011;11795;47.054;15.408;2024-03-17T06:24:00;3.7;;;2.1;;
23252;SDS011;11795;47.054;15.408;2024-03-17T06:26:02;3.8;;;2.9;;
23252;SDS011;11795;47.054;15.408;2024-03-17T06:28:01;3.8;;;2.9;;
23252;SDS011;11795;47.054;15.408;2024-03-17T06:30:04;3.8;;;2.9;;
23252;SDS011;11795;47.054;15.408;2024-03-17T06:32:00;5.3;;;3.2;;
23252;SDS011;11795;47.054;15.408;2024-03-17T06:34:00;5.3;;;3.2;;
23252;SDS011;11795;47.054;15.408;2024-03-17T06:36:01;4.6;;;3.6;;
23252;SDS011;11795;47.054;15.408;2024-03-17T06:38:01;4.6;;;3.6;;
23252;SDS011;11795;47.054;15.408;2024-03-17T06:40:00;4.6;;;3.6;;
23252;SDS011;11795;47.054;15.408;2024-03-17T06:42:00;4.1;;;3.7;;
23252;SDS011;11795;47.054;15.408;2024-03-17T06:44:00;4.1;;;3.7;;
23252;SDS011;11795;47.054;15.408;2024-03-17T06:46:00;3.5;;;3.1;;
23252;SDS011;11795;47.054;15.408;2024-03-17T06:48:00;3.5;;;3.1;;
23252;SDS011;11795;47.054;15.408;2024-03-17T06:50:00;3.5;;;3.1;;
23252;SDS011;11795;47.054;15.408;2024-03-17T06:52:01;1.7;;;1.6;;
23252;SDS011;11795;47.054;15.408;2024-03-17T06:54:00;1.7;;;1.6;;
23252;SDS011;11795;47.054;15.408;2024-03-17T06:56:01;2.3;;;1.6;;
23252;SDS011;11795;47.054;15.408;2024-03-17T06:58:00;2.3;;;1.6;;
23252;SDS011;11795;47.054;15.408;2024-03-17T07:00:00;2.3;;;1.6;;
23252;SDS011;11795;47.054;15.408;2024-03-17T07:02:01;1.6;;;1.4;;
23252;SDS011;11795;47.054;15.408;2024-03-17T07:04:00;1.6;;;1.4;;
23252;SDS011;11795;47.054;15.408;2024-03-17T07:06:02;2.6;;;1.5;;
23252;SDS011;11795;47.054;15.408;2024-03-17T07:08:00;2.6;;;1.5;;
23252;SDS011;11795;47.054;15.408;2024-03-17T07:10:05;2.6;;;1.5;;
23252;SDS011;11795;47.054;15.408;2024-03-17T07:12:00;2.5;;;1.3;;
23252;SDS011;11795;47.054;15.408;2024-03-17T07:14:00;2.5;;;1.3;;
23252;SDS011;11795;47.054;15.408;2024-03-17T07:16:01;1.8;;;1.1;;
23252;SDS011;11795;47.054;15.408;2024-03-17T07:18:00;1.8;;;1.1;;
23252;SDS011;11795;47.054;15.408;2024-03-17T07:20:00;1.8;;;1.1;;
23252;SDS011;11795;47.054;15.408;2024-03-17T07:22:00;2.0;;;1.0;;
23252;SDS011;11795;47.054;15.408;2024-03-17T07:24:04;2.0;;;1.0;;
23252;SDS011;11795;47.054;15.408;2024-03-17T07:26:00;2.1;;;0.7;;
23252;SDS011;11795;47.054;15.408;2024-03-17T07:28:00;2.1;;;0.7;;
23252;SDS011;11795;47.054;15.408;2024-03-17T07:30:00;2.1;;;0.7;;
23252;SDS011;11795;47.054;15.408;2024-03-17T07:32:00;1.1;;;0.8;;
23252;SDS011;11795;47.054;15.408;2024-03-17T07:34:00;1.1;;;0.8;;
23252;SDS011;11795;47.054;15.408;2024-03-17T07:36:01;1.8;;;0.9;;
23252;SDS011;11795;47.054;15.408;2024-03-17T07:38:00;1.8;;;0.9;;
23252;SDS011;11795;47.054;15.408;2024-03-17T07:40:03;1.8;;;0.9;;
23252;SDS011;11795;47.054;15.408;2024-03-17T07:42:01;1.2;;;0.7;;
23252;SDS011;11795;47.054;15.408;2024-03-17T07:44:00;1.2;;;0.7;;
23252;SDS011;11795;47.054;15.408;2024-03-17T07:46:01;1.3;;;0.9;;
23252;SDS011;11795;47.054;15.408;2024-03-17T07:48:00;1.3;;;0.9;;
23252;SDS011;11795;47.054;15.408;2024-03-17T07:50:04;1.3;;;0.9;;
23252;SDS011;11795;47.054;15.408;2024-03-17T07:52:00;1.3;;;0.7;;
23252;SDS011;11795;47.054;15.408;2024-03-17T07:54:00;1.3;;;0.7;;
23252;SDS011;11795;47.054;15.408;2024-03-17T07:56:01;1.6;;;0.7;;
23252;SDS011;11795;47.054;15.408;2024-03-17T07:58:00;1.6;;;0.7;;
23252;SDS011;11795;47.054;15.408;2024-03-17T08:00:00;1.6;;;0.7;;
23252;SDS011;11795;47.054;15.408;2024-03-17T08:02:00;0.6;;;0.4;;
23252;SDS011;11795;47.054;15.408;2024-03-17T08:04:00;0.6;;;0.4;;
23252;SDS011;11795;47.054;15.408;2024-03-17T08:06:01;1.8;;;0.5;;
23252;SDS011;11795;47.054;15.408;2024-03-17T08:08:00;1.8;;;0.5;;
23252;SDS011;11795;47.054;15.408;2024-03-17T08:10:00;1.8;;;0.5;;
23252;SDS011;11795;47.054;15.408;2024-03-17T08:12:02;1.1;;;0.5;;
23252;SDS011;11795;47.054;15.408;2024-03-17T08:14:01;1.1;;;0.5;;
23252;SDS011;11795;47.054;15.408;2024-03-17T08:16:01;0.6;;;0.3;;
23252;SDS011;11795;47.054;15.408;2024-03-17T08:18:00;0.6;;;0.3;;
23252;SDS011;11795;47.054;15.408;2024-03-17T08:20:00;0.6;;;0.3;;
23252;SDS011;11795;47.054;15.408;2024-03-17T08:22:00;0.6;;;0.5;;
23252;SDS011;11795;47.054;15.408;2024-03-17T08:24:00;0.6;;;0.5;;
23252;SDS011;11795;47.054;15.408;2024-03-17T08:26:00;0.4;;;0.4;;
23252;SDS011;11795;47.054;15.408;2024-03-17T08:28:00;0.4;;;0.4;;
23252;SDS011;11795;47.054;15.408;2024-03-17T08:30:00;0.4;;;0.4;;
23252;SDS011;11795;47.054;15.408;2024-03-17T08:32:00;0.8;;;0.4;;
23252;SDS011;11795;47.054;15.408;2024-03-17T08:34:00;0.8;;;0.4;;
23252;SDS011;11795;47.054;15.408;2024-03-17T08:36:01;0.6;;;0.2;;
23252;SDS011;11795;47.054;15.408;2024-03-17T08:38:00;0.6;;;0.2;;
23252;SDS011;11795;47.054;15.408;2024-03-17T08:40:00;0.6;;;0.2;;
23252;SDS011;11795;47.054;15.408;2024-03-17T08:42:00;0.7;;;0.4;;
23252;SDS011;11795;47.054;15.408;2024-03-17T08:44:00;0.7;;;0.4;;
23252;SDS011;11795;47.054;15.408;2024-03-17T08:46:03;0.6;;;0.3;;
23252;SDS011;11795;47.054;15.408;2024-03-17T08:48:00;0.6;;;0.3;;
23252;SDS011;11795;47.054;15.408;2024-03-17T08:50:04;0.6;;;0.3;;
23252;SDS011;11795;47.054;15.408;2024-03-17T08:52:00;0.7;;;0.3;;
23252;SDS011;11795;47.054;15.408;2024-03-17T08:54:00;0.7;;;0.3;;
23252;SDS011;11795;47.054;15.408;2024-03-17T08:56:02;0.8;;;0.3;;
23252;SDS011;11795;47.054;15.408;2024-03-17T08:58:00;0.8;;;0.3;;
23252;SDS011;11795;47.054;15.408;2024-03-17T09:00:00;0.8;;;0.3;;
23252;SDS011;11795;47.054;15.408;2024-03-17T09:02:00;0.5;;;0.4;;
23252;SDS011;11795;47.054;15.408;2024-03-17T09:04:01;0.5;;;0.4;;
23252;SDS011;11795;47.054;15.408;2024-03-17T09:06:00;0.8;;;0.2;;
23252;SDS011;11795;47.054;15.408;2024-03-17T09:08:01;0.8;;;0.2;;
23252;SDS011;11795;47.054;15.408;2024-03-17T09:10:00;0.8;;;0.2;;
23252;SDS011;11795;47.054;15.408;2024-03-17T09:12:00;1.4;;;0.3;;
23252;SDS011;11795;47.054;15.408;2024-03-17T09:14:01;1.4;;;0.3;;
23252;SDS011;11795;47.054;15.408;2024-03-17T09:16:00;1.4;;;0.3;;
23252;SDS011;11795;47.054;15.408;2024-03-17T09:18:02;1.2;;;0.2;;
23252;SDS011;11795;47.054;15.408;2024-03-17T09:20:00;1.2;;;0.2;;
23252;SDS011;11795;47.054;15.408;2024-03-17T09:22:00;2.0;;;0.3;;
23252;SDS011;11795;47.054;15.408;2024-03-17T09:24:00;2.0;;;0.3;;
23252;SDS011;11795;47.054;15.408;2024-03-17T09:26:01;2.0;;;0.3;;
23252;SDS011;11795;47.054;15.408;2024-03-17T09:28:00;0.4;;;0.2;;
23252;SDS011;11795;47.054;15.408;2024-03-17T09:30:00;0.4;;;0.2;;
23252;SDS011;11795;47.054;15.408;2024-03-17T09:32:00;0.8;;;0.2;;
23252;SDS011;11795;47.054;15.408;2024-03-17T09:34:01;0.8;;;0.2;;
23252;SDS011;11795;47.054;15.408;2024-03-17T09:36:01;0.8;;;0.2;;
23252;SDS011;11795;47.054;15.408;2024-03-17T09:38:00;0.4;;;0.2;;
23252;SDS011;11795;47.054;15.408;2024-03-17T09:40:00;0.4;;;0.2;;
23252;SDS011;11795;47.054;15.408;2024-03-17T09:42:00;0.4;;;0.2;;
23252;SDS011;11795;47.054;15.408;2024-03-17T09:44:00;0.4;;;0.2;;
23252;SDS011;11795;47.054;15.408;2024-03-17T09:46:02;0.4;;;0.2;;
23252;SDS011;11795;47.054;15.408;2024-03-17T09:48:00;0.6;;;0.3;;
23252;SDS011;11795;47.054;15.408;2024-03-17T09:50:00;0.6;;;0.3;;
23252;SDS011;11795;47.054;15.408;2024-03-17T09:52:00;1.0;;;0.3;;
23252;SDS011;11795;47.054;15.408;2024-03-17T09:54:00;1.0;;;0.3;;
23252;SDS011;11795;47.054;15.408;2024-03-17T09:56:01;1.0;;;0.3;;
23252;SDS011;11795;47.054;15.408;2024-03-17T09:58:00;0.2;;;0.1;;
23252;SDS011;11795;47.054;15.408;2024-03-17T10:00:00;0.2;;;0.1;;
23252;SDS011;11795;47.054;15.408;2024-03-17T10:02:00;0.5;;;0.2;;
23252;SDS011;11795;47.054;15.408;2024-03-17T10:04:04;0.5;;;0.2;;
23252;SDS011;11795;47.054;15.408;2024-03-17T10:06:00;0.5;;;0.2;;
23252;SDS011;11795;47.054;15.408;2024-03-17T10:08:00;0.6;;;0.2;;
23252;SDS011;11795;47.054;15.408;2024-03-17T10:10:10;0.6;;;0.2;;
23252;SDS011;11795;47.054;15.408;2024-03-17T10:12:00;0.3;;;0.2;;
23252;SDS011;11795;47.054;15.408;2024-03-17T10:14:01;0.3;;;0.2;;
23252;SDS011;11795;47.054;15.408;2024-03-17T10:16:00;0.3;;;0.2;;
23252;SDS011;11795;47.054;15.408;2024-03-17T10:18:00;0.3;;;0.2;;
23252;SDS011;11795;47.054;15.408;2024-03-17T10:22:00;0.3;;;0.2;;
23252;SDS011;11795;47.054;15.408;2024-03-17T10:24:08;0.3;;;0.2;;
23252;SDS011;11795;47.054;15.408;2024-03-17T10:26:00;0.3;;;0.2;;
23252;SDS011;11795;47.054;15.408;2024-03-17T10:28:01;1.1;;;0.2;;
23252;SDS011;11795;47.054;15.408;2024-03-17T10:30:00;1.1;;;0.2;;
23252;SDS011;11795;47.054;15.408;2024-03-17T10:32:02;0.4;;;0.3;;
23252;SDS011;11795;47.054;15.408;2024-03-17T10:34:00;0.4;;;0.3;;
23252;SDS011;11795;47.054;15.408;2024-03-17T10:36:01;0.4;;;0.3;;
23252;SDS011;11795;47.054;15.408;2024-03-17T10:38:01;0.5;;;0.4;;
23252;SDS011;11795;47.054;15.408;2024-03-17T10:40:00;0.5;;;0.4;;
23252;SDS011;11795;47.054;15.408;2024-03-17T10:42:01;0.5;;;0.4;;
23252;SDS011;11795;47.054;15.408;2024-03-17T10:44:00;0.5;;;0.4;;
23252;SDS011;11795;47.054;15.408;2024-03-17T10:46:00;0.5;;;0.4;;
23252;SDS011;11795;47.054;15.408;2024-03-17T10:48:00;1.0;;;0.6;;
23252;SDS011;11795;47.054;15.408;2024-03-17T10:50:04;1.0;;;0.6;;
23252;SDS011;11795;47.054;15.408;2024-03-17T10:52:01;0.5;;;0.3;;
23252;SDS011;11795;47.054;15.408;2024-03-17T10:54:00;0.5;;;0.3;;
23252;SDS011;11795;47.054;15.408;2024-03-17T10:56:04;0.5;;;0.3;;
23252;SDS011;11795;47.054;15.408;2024-03-17T10:58:00;0.8;;;0.4;;
23252;SDS011;11795;47.054;15.408;2024-03-17T11:00:04;0.8;;;0.4;;
23252;SDS011;11795;47.054;15.408;2024-03-17T11:02:01;1.4;;;0.4;;
23252;SDS011;11795;47.054;15.408;2024-03-17T11:04:04;1.4;;;0.4;;
23252;SDS011;11795;47.054;15.408;2024-03-17T11:06:00;1.4;;;0.4;;
23252;SDS011;11795;47.054;15.408;2024-03-17T11:08:01;0.6;;;0.4;;
23252;SDS011;11795;47.054;15.408;2024-03-17T11:10:00;0.6;;;0.4;;
23252;SDS011;11795;47.054;15.408;2024-03-17T11:12:00;0.8;;;0.3;;
23252;SDS011;11795;47.054;15.408;2024-03-17T11:16:04;0.8;;;0.3;;
23252;SDS011;11795;47.054;15.408;2024-03-17T11:24:01;0.6;;;0.3;;
23252;SDS011;11795;47.054;15.408;2024-03-17T11:26:00;0.6;;;0.3;;
23252;SDS011;11795;47.054;15.408;2024-03-17T11:28:00;0.9;;;0.3;;
23252;SDS011;11795;47.054;15.408;2024-03-17T11:32:00;0.7;;;0.2;;
23252;SDS011;11795;47.054;15.408;2024-03-17T11:34:03;0.7;;;0.2;;
23252;SDS011;11795;47.054;15.408;2024-03-17T11:38:00;1.1;;;0.3;;
23252;SDS011;11795;47.054;15.408;2024-03-17T11:40:00;1.1;;;0.3;;
23252;SDS011;11795;47.054;15.408;2024-03-17T11:42:04;0.5;;;0.3;;
23252;SDS011;11795;47.054;15.408;2024-03-17T11:46:00;0.5;;;0.3;;
23252;SDS011;11795;47.054;15.408;2024-03-17T11:48:00;0.3;;;0.2;;
23252;SDS011;11795;47.054;15.408;2024-03-17T11:50:01;0.3;;;0.2;;
23252;SDS011;11795;47.054;15.408;2024-03-17T11:52:01;0.3;;;0.3;;
23252;SDS011;11795;47.054;15.408;2024-03-17T11:54:00;0.3;;;0.3;;
23252;SDS011;11795;47.054;15.408;2024-03-17T11:56:04;0.3;;;0.3;;
23252;SDS011;11795;47.054;15.408;2024-03-17T11:58:00;1.0;;;0.3;;
23252;SDS011;11795;47.054;15.408;2024-03-17T12:00:00;1.0;;;0.3;;
23252;SDS011;11795;47.054;15.408;2024-03-17T12:02:01;0.7;;;0.2;;
23252;SDS011;11795;47.054;15.408;2024-03-17T12:04:05;0.7;;;0.2;;
23252;SDS011;11795;47.054;15.408;2024-03-17T12:06:01;0.7;;;0.2;;
23252;SDS011;11795;47.054;15.408;2024-03-17T12:08:00;0.5;;;0.2;;
23252;SDS011;11795;47.054;15.408;2024-03-17T12:10:03;0.5;;;0.2;;
23252;SDS011;11795;47.054;15.408;2024-03-17T12:12:01;0.6;;;0.2;;
23252;SDS011;11795;47.054;15.408;2024-03-17T12:14:09;0.6;;;0.2;;
23252;SDS011;11795;47.054;15.408;2024-03-17T12:16:09;0.6;;;0.2;;
23252;SDS011;11795;47.054;15.408;2024-03-17T12:18:03;0.6;;;0.3;;
23252;SDS011;11795;47.054;15.408;2024-03-17T12:20:00;0.6;;;0.3;;
23252;SDS011;11795;47.054;15.408;2024-03-17T12:22:01;0.4;;;0.2;;
23252;SDS011;11795;47.054;15.408;2024-03-17T12:24:00;0.4;;;0.2;;
23252;SDS011;11795;47.054;15.408;2024-03-17T12:26:00;0.4;;;0.2;;
23252;SDS011;11795;47.054;15.408;2024-03-17T12:28:00;1.2;;;0.8;;